^^
Station Historical Data
Daily Summary for March 2, 2017 Units:  Metric    English   Both
« Previous Day
Next Day »
Daily Weekly Monthly Yearly Custom
  High: Low: Average:
Temperature: 35.1 °C 23.4 °C 27.7 °C
Dew Point: 17.5 °C 4.1 °C 9.2 °C
Humidity: 55% 25% 32%
Wind Speed: 11.1km/h 0km/h 2.7km/h
Wind Gust: 30.6km/h - -
Wind- - ESE
Pressure: 1008.7 hPa 1005.6 hPa -
Precipitation: 0 mm    
Historical Graphs
 
 
Tabular Data for March 2, 2017
Time Temperature Dew Point Pressure Wind Wind Speed Wind Gust Humidity Rainfall Rate (Hourly) solar Conditions
00:01 27.3 °C 17.5 °C 1008 hPa Calm     55% 0 mm 0.0 W/m2
00:06 27.3 °C 17.5 °C 1008 hPa Calm     55% 0 mm 0.0 W/m2
00:11 27.2 °C 17.1 °C 1008 hPa Calm     54% 0 mm 0.0 W/m2
00:16 27.2 °C 17.1 °C 1007.7 hPa Calm     54% 0 mm 0.0 W/m2
00:26 27.3 °C 16.6 °C 1007.7 hPa Calm     52% 0 mm 0.0 W/m2
00:31 27.4 °C 16.4 °C 1007.7 hPa Calm     51% 0 mm 0.0 W/m2
00:37 27.4 °C 16.4 °C 1007.7 hPa Calm     51% 0 mm 0.0 W/m2
00:42 27.6 °C 16.6 °C 1007.7 hPa Calm     51% 0 mm 0.0 W/m2
00:47 27.5 °C 16.5 °C 1007.7 hPa Calm     51% 0 mm 0.0 W/m2
00:52 27.4 °C 15.4 °C 1007.7 hPa Calm     48% 0 mm 0.0 W/m2
01:02 27.8 °C 14.1 °C 1007.7 hPa ENE 7.9 km/h 9.7 km/h 43% 0 mm 0.0 W/m2
01:07 27.9 °C 14.9 °C 1007.7 hPa ENE 6.4 km/h 9.7 km/h 45% 0 mm 0.0 W/m2
01:12 27.9 °C 15.2 °C 1007.7 hPa ENE 4.7 km/h 8 km/h 46% 0 mm 0.0 W/m2
01:18 27.9 °C 15.2 °C 1008 hPa ENE 9.7 km/h 12.9 km/h 46% 0 mm 0.0 W/m2
01:28 28.1 °C 12 °C 1008 hPa ENE 11.1 km/h 11.3 km/h 37% 0 mm 0.0 W/m2
01:37 28.2 °C 9.5 °C 1007.7 hPa East 7.9 km/h 12.9 km/h 31% 0 mm 0.0 W/m2
01:42 28.2 °C 9 °C 1008 hPa East 9.7 km/h 12.9 km/h 30% 0 mm 0.0 W/m2
01:53 28.1 °C 8.4 °C 1008 hPa East 7.9 km/h 12.9 km/h 29% 0 mm 0.0 W/m2
01:58 27.9 °C 8.2 °C 1008 hPa ESE 11.1 km/h 12.9 km/h 29% 0 mm 0.0 W/m2
02:03 27.9 °C 8.2 °C 1008 hPa ESE 9.7 km/h 12.9 km/h 29% 0 mm 0.0 W/m2
02:08 27.9 °C 7.7 °C 1008 hPa ESE 11.1 km/h 11.3 km/h 28% 0 mm 0.0 W/m2
02:13 27.8 °C 7.6 °C 1008 hPa ESE 9.7 km/h 11.3 km/h 28% 0 mm 0.0 W/m2
02:18 27.8 °C 7.1 °C 1008 hPa ESE 7.9 km/h 11.3 km/h 27% 0 mm 0.0 W/m2
02:28 27.6 °C 6.4 °C 1008 hPa ESE 7.9 km/h 9.7 km/h 26% 0 mm 0.0 W/m2
02:33 27.6 °C 6.4 °C 1008 hPa ESE 7.9 km/h 9.7 km/h 26% 0 mm 0.0 W/m2
02:38 27.4 °C 6.2 °C 1008 hPa ESE 6.4 km/h 8 km/h 26% 0 mm 0.0 W/m2
02:43 27.3 °C 6.1 °C 1008 hPa ESE 4.7 km/h 8 km/h 26% 0 mm 0.0 W/m2
02:48 27.2 °C 6.6 °C 1008 hPa ESE 6.4 km/h 6.4 km/h 27% 0 mm 0.0 W/m2
02:54 27 °C 6.4 °C 1008 hPa ESE 7.9 km/h 8 km/h 27% 0 mm 0.0 W/m2
03:04 26.8 °C 6.2 °C 1008 hPa ESE 9.7 km/h 9.7 km/h 27% 0 mm 0.0 W/m2
03:09 26.9 °C 6.3 °C 1008 hPa ESE 7.9 km/h 9.7 km/h 27% 0 mm 0.0 W/m2
03:14 26.9 °C 5.8 °C 1008 hPa ESE 6.4 km/h 9.7 km/h 26% 0 mm 0.0 W/m2
03:19 26.9 °C 5.8 °C 1008 hPa ESE 3.2 km/h 8 km/h 26% 0 mm 0.0 W/m2
03:24 26.8 °C 5.7 °C 1007.7 hPa ESE 6.4 km/h 6.4 km/h 26% 0 mm 0.0 W/m2
03:34 26.8 °C 5.1 °C 1007.7 hPa ESE 9.7 km/h 11.3 km/h 25% 0 mm 0.0 W/m2
03:45 26.6 °C 5 °C 1007.7 hPa ESE 4.7 km/h 6.4 km/h 25% 0 mm 0.0 W/m2
03:50 26.5 °C 4.9 °C 1007.7 hPa ESE 6.4 km/h 6.4 km/h 25% 0 mm 0.0 W/m2
03:55 26.4 °C 4.8 °C 1007.7 hPa ESE 7.9 km/h 8 km/h 25% 0 mm 0.0 W/m2
04:00 26.4 °C 4.8 °C 1007.7 hPa Calm   4.8 km/h 25% 0 mm 0.0 W/m2
04:05 26.3 °C 4.7 °C 1007.7 hPa Calm     25% 0 mm 0.0 W/m2
04:10 26.3 °C 4.7 °C 1007.7 hPa Calm     25% 0 mm 0.0 W/m2
04:15 26.2 °C 4.6 °C 1007.7 hPa Calm     25% 0 mm 0.0 W/m2
04:20 26.2 °C 4.6 °C 1007.7 hPa Calm     25% 0 mm 0.0 W/m2
04:25 26.2 °C 4.6 °C 1007.3 hPa Calm     25% 0 mm 0.0 W/m2
04:31 26.1 °C 5.1 °C 1007.7 hPa Calm     26% 0 mm 0.0 W/m2
04:36 25.9 °C 5.5 °C 1007.3 hPa Calm     27% 0 mm 0.0 W/m2
04:47 25.7 °C 4.8 °C 1007.3 hPa Calm     26% 0 mm 0.0 W/m2
04:52 25.6 °C 4.7 °C 1007.3 hPa Calm     26% 0 mm 0.0 W/m2
04:57 25.6 °C 4.7 °C 1007.7 hPa Calm     26% 0 mm 0.0 W/m2
05:02 25.6 °C 5.2 °C 1007.7 hPa Calm     27% 0 mm 0.0 W/m2
05:07 25.4 °C 4.5 °C 1007.3 hPa Calm     26% 0 mm 0.0 W/m2
05:13 25.6 °C 4.1 °C 1007.3 hPa Calm     25% 0 mm 0.0 W/m2
05:19 25.7 °C 4.2 °C 1007.3 hPa Calm     25% 0 mm 0.0 W/m2
05:29 25.4 °C 5 °C 1007.7 hPa Calm     27% 0 mm 0.0 W/m2
05:44 24.8 °C 5.6 °C 1007.7 hPa Calm     29% 0 mm 0.0 W/m2
05:56 24.7 °C 5.5 °C 1007.7 hPa Calm     29% 0 mm 0.0 W/m2
06:10 24.3 °C 6.5 °C 1008 hPa Calm     32% 0 mm 0.0 W/m2
06:16 24.2 °C 6.9 °C 1008 hPa Calm     33% 0 mm 0.0 W/m2
06:21 24 °C 7.2 °C 1008 hPa Calm     34% 0 mm 0.0 W/m2
06:31 23.9 °C 7.1 °C 1008 hPa Calm     34% 0 mm 0.0 W/m2
06:37 23.7 °C 7.3 °C 1008.4 hPa Calm     35% 0 mm 0.0 W/m2
06:42 23.6 °C 7.7 °C 1008.4 hPa Calm     36% 0 mm 0.0 W/m2
06:47 23.6 °C 7.7 °C 1008.4 hPa Calm     36% 0 mm 7.0 W/m2
06:58 23.4 °C 7.5 °C 1008.4 hPa Calm     36% 0 mm 12.0 W/m2
07:17 24.1 °C 8.5 °C 1008.4 hPa Calm     37% 0 mm 53.0 W/m2
07:22 24.6 °C 8.5 °C 1008.4 hPa Calm     36% 0 mm 69.0 W/m2
07:30 24.8 °C 8.7 °C 1008.7 hPa Calm     36% 0 mm 86.0 W/m2
07:36 25 °C 8.9 °C 1008.4 hPa Calm     36% 0 mm 111.0 W/m2
07:37 25.3 °C 7.9 °C 1008.4 hPa Calm     33% 0 mm 132.0 W/m2
07:47 25.6 °C 9 °C 1008.7 hPa Calm     35% 0 mm 151.0 W/m2
07:53 26 °C 7.6 °C 1008.7 hPa Calm     31% 0 mm 195.0 W/m2
08:08 26.6 °C 6.6 °C 1008.7 hPa Calm     28% 0 mm 239.0 W/m2
08:16 27.1 °C 6.5 °C 1008.7 hPa Calm     27% 0 mm 281.0 W/m2
08:27 27.4 °C 6.2 °C 1008.7 hPa Calm     26% 0 mm 369.0 W/m2
08:34 27.6 °C 6.4 °C 1008.7 hPa Calm     26% 0 mm 427.0 W/m2
08:44 28 °C 6.7 °C 1008.7 hPa Calm     26% 0 mm 431.0 W/m2
08:53 28.2 °C 6.9 °C 1008.7 hPa Calm     26% 0 mm 422.0 W/m2
09:05 28.7 °C 7.9 °C 1008.7 hPa Calm     27% 0 mm 441.0 W/m2
09:17 29.1 °C 7.6 °C 1008.7 hPa Calm     26% 0 mm 490.0 W/m2
09:21 29.4 °C 8.4 °C 1008.7 hPa Calm     27% 0 mm 548.0 W/m2
09:43 29.7 °C 9.2 °C 1008.7 hPa Calm     28% 0 mm 378.0 W/m2
09:51 30.2 °C 10.7 °C 1008.7 hPa Calm     30% 0 mm 631.0 W/m2
10:15 30.9 °C 10.8 °C 1008.4 hPa Calm   3.2 km/h 29% 0 mm 708.0 W/m2
10:29 31.3 °C 11.1 °C 1008.4 hPa Calm     29% 0 mm 742.0 W/m2
10:44 31.7 °C 12 °C 1008.4 hPa Calm   4.8 km/h 30% 0 mm 343.0 W/m2
11:00 32 °C 15.1 °C 1008.4 hPa Calm   9.7 km/h 36% 0 mm 784.0 W/m2
11:15 32.4 °C 15 °C 1008 hPa East 6.4 km/h 6.4 km/h 35% 0 mm 944.0 W/m2
11:23 32.7 °C 15.2 °C 1007.7 hPa Calm   9.7 km/h 35% 0 mm 946.0 W/m2
11:38 33.4 °C 15.4 °C 1007.7 hPa ENE 7.9 km/h 11.3 km/h 34% 0 mm 974.0 W/m2
12:00 33.7 °C 15.2 °C 1007.3 hPa Calm   9.7 km/h 33% 0 mm 791.0 W/m2
12:14 33.6 °C 15.1 °C 1007 hPa Calm   25.7 km/h 33% 0 mm 550.0 W/m2
12:25 33.6 °C 14.6 °C 1006.7 hPa NW 11.1 km/h 22.5 km/h 32% 0 mm 1000.0 W/m2
12:29 33.9 °C 14.9 °C 1006.3 hPa Calm     32% 0 mm 988.0 W/m2
12:51 34.4 °C 14.8 °C 1006.3 hPa NW 3.2 km/h 17.7 km/h 31% 0 mm 455.0 W/m2
13:04 34.3 °C 14.7 °C 1005.6 hPa WNW 7.9 km/h 30.6 km/h 31% 0 mm 900.0 W/m2
13:12 35 °C 14.8 °C 1005.6 hPa WNW 6.4 km/h 16.1 km/h 30% 0 mm 907.0 W/m2
13:14 35.1 °C 14.4 °C 1005.6 hPa Calm   9.7 km/h 29% 0 mm 902.0 W/m2
Canyon Roadhouse, Fishriver Canyon, Namibia
Compliments of Weather Underground - 2 mb